aviador You're here:

YBRM Decoded Metar

BROOME in AUSTRALIA
Report Time2018-05-20 19:00:00
UTC Time2018-05-20 19:34:53
Flight Rules vfr VFR
Wind110° at 08 kt
W.Decomp.*RWY 10: 7.9 kt HW 1.1 kt RCW
W.Rank110° ranks 6
Current wind is below 110° avg. (8.1)
Visibility9999 m
Phenomena:N/A
Clouds:N/A
Expected CloudBase > 4,400 ft AGL from Temp-Dew spread
CeilingNone
Temp18°C (ISA +3)
Dew Point07°C (49% RH)
AAT14.4°C
QNH1014 hPa
Density Alt525 ft
Elevation56 ft
Report Wrong Elevation
Raw Report
YBRM 201900Z AUTO 11008KT 9999 // NCD 18/07 Q1014=

Extra information for YBRM:More info

Metar Taf Metar & Taf Last 4 Metars F.Rules Stats Wind Profile Meteogram Temp Stats Airport Information Weather charts Add Link Nearby VenuesMetar ALERT Operation Metar Decoded Social comments